sensor_id;sensor_type;location;lat;lon;timestamp;pressure;altitude;pressure_sealevel;temperature;humidity
52032;BME280;38044;45.148;39.604;2023-04-26T00:00:23;100819.19;;;7.37;83.13
52032;BME280;38044;45.148;39.604;2023-04-26T00:02:49;100864.16;;;7.55;82.87
52032;BME280;38044;45.148;39.604;2023-04-26T00:05:15;100867.69;;;7.66;83.05
52032;BME280;38044;45.148;39.604;2023-04-26T00:07:42;100859.91;;;7.70;82.80
52032;BME280;38044;45.148;39.604;2023-04-26T00:10:09;100860.72;;;7.60;82.81
52032;BME280;38044;45.148;39.604;2023-04-26T00:12:36;100859.13;;;7.59;82.71
52032;BME280;38044;45.148;39.604;2023-04-26T00:15:04;100865.53;;;7.53;82.77
52032;BME280;38044;45.148;39.604;2023-04-26T00:17:30;100709.38;;;6.23;82.50
52032;BME280;38044;45.148;39.604;2023-04-26T00:19:56;100799.91;;;6.72;83.21
52032;BME280;38044;45.148;39.604;2023-04-26T00:22:23;100847.59;;;6.90;83.38
52032;BME280;38044;45.148;39.604;2023-04-26T00:24:50;100879.25;;;7.14;84.10
52032;BME280;38044;45.148;39.604;2023-04-26T00:27:16;100745.28;;;6.42;83.88
52032;BME280;38044;45.148;39.604;2023-04-26T00:29:41;100860.00;;;7.17;84.10
52032;BME280;38044;45.148;39.604;2023-04-26T00:32:07;100856.50;;;7.11;84.11
52032;BME280;38044;45.148;39.604;2023-04-26T00:34:35;100867.00;;;7.23;84.06
52032;BME280;38044;45.148;39.604;2023-04-26T00:37:01;100864.28;;;7.18;83.68
52032;BME280;38044;45.148;39.604;2023-04-26T00:39:28;100722.19;;;6.26;83.95
52032;BME280;38044;45.148;39.604;2023-04-26T00:41:54;100860.50;;;7.09;84.09
52032;BME280;38044;45.148;39.604;2023-04-26T00:44:20;100850.81;;;6.97;84.20
52032;BME280;38044;45.148;39.604;2023-04-26T00:46:46;100682.06;;;5.73;84.66
52032;BME280;38044;45.148;39.604;2023-04-26T00:49:15;100853.72;;;6.86;85.31
52032;BME280;38044;45.148;39.604;2023-04-26T00:51:44;100846.16;;;6.72;85.46
52032;BME280;38044;45.148;39.604;2023-04-26T00:54:39;100845.66;;;6.75;85.98
52032;BME280;38044;45.148;39.604;2023-04-26T00:57:05;100846.38;;;6.66;85.91
52032;BME280;38044;45.148;39.604;2023-04-26T00:59:35;100847.75;;;6.73;85.93
52032;BME280;38044;45.148;39.604;2023-04-26T01:02:04;100855.56;;;6.85;85.58
52032;BME280;38044;45.148;39.604;2023-04-26T01:04:30;100853.75;;;6.91;85.23
52032;BME280;38044;45.148;39.604;2023-04-26T01:06:56;100690.97;;;5.84;84.62
52032;BME280;38044;45.148;39.604;2023-04-26T01:09:22;100779.44;;;6.40;84.43
52032;BME280;38044;45.148;39.604;2023-04-26T01:11:50;100734.34;;;6.01;84.31
52032;BME280;38044;45.148;39.604;2023-04-26T01:14:17;100739.69;;;6.06;84.36
52032;BME280;38044;45.148;39.604;2023-04-26T01:16:43;100743.38;;;6.00;84.67
52032;BME280;38044;45.148;39.604;2023-04-26T01:19:11;100856.91;;;6.83;84.85
52032;BME280;38044;45.148;39.604;2023-04-26T01:21:38;100688.16;;;5.69;84.80
52032;BME280;38044;45.148;39.604;2023-04-26T01:24:05;100857.16;;;6.81;84.67
52032;BME280;38044;45.148;39.604;2023-04-26T01:26:31;100860.09;;;6.80;84.74
52032;BME280;38044;45.148;39.604;2023-04-26T01:28:57;100842.13;;;6.70;84.59
52032;BME280;38044;45.148;39.604;2023-04-26T01:31:23;100712.88;;;5.91;84.74
52032;BME280;38044;45.148;39.604;2023-04-26T01:33:49;100833.28;;;6.69;84.63
52032;BME280;38044;45.148;39.604;2023-04-26T01:36:15;100732.19;;;6.03;84.63
52032;BME280;38044;45.148;39.604;2023-04-26T01:38:41;100720.94;;;5.96;84.52
52032;BME280;38044;45.148;39.604;2023-04-26T01:41:07;100801.06;;;6.44;84.49
52032;BME280;38044;45.148;39.604;2023-04-26T01:43:33;100818.44;;;6.46;84.54
52032;BME280;38044;45.148;39.604;2023-04-26T01:45:58;100799.19;;;6.39;84.78
52032;BME280;38044;45.148;39.604;2023-04-26T01:48:24;100675.50;;;5.54;84.19
52032;BME280;38044;45.148;39.604;2023-04-26T01:50:50;100794.03;;;6.27;84.44
52032;BME280;38044;45.148;39.604;2023-04-26T01:53:16;100724.06;;;5.88;84.58
52032;BME280;38044;45.148;39.604;2023-04-26T01:55:42;100855.47;;;6.65;84.92
52032;BME280;38044;45.148;39.604;2023-04-26T01:58:08;100857.06;;;6.66;84.98
52032;BME280;38044;45.148;39.604;2023-04-26T02:00:34;100675.22;;;5.50;84.93
52032;BME280;38044;45.148;39.604;2023-04-26T02:03:02;100856.50;;;6.64;84.68
52032;BME280;38044;45.148;39.604;2023-04-26T02:05:28;100843.66;;;6.56;84.55
52032;BME280;38044;45.148;39.604;2023-04-26T02:07:54;100850.06;;;6.60;84.68
52032;BME280;38044;45.148;39.604;2023-04-26T02:10:20;100694.44;;;5.52;84.50
52032;BME280;38044;45.148;39.604;2023-04-26T02:12:45;100857.50;;;6.52;84.85
52032;BME280;38044;45.148;39.604;2023-04-26T02:15:11;100855.59;;;6.48;84.98
52032;BME280;38044;45.148;39.604;2023-04-26T02:17:37;100648.84;;;5.22;84.96
52032;BME280;38044;45.148;39.604;2023-04-26T02:20:04;100859.13;;;6.53;84.97
52032;BME280;38044;45.148;39.604;2023-04-26T02:22:31;100826.94;;;6.33;84.63
52032;BME280;38044;45.148;39.604;2023-04-26T02:24:57;100851.56;;;6.45;84.90
52032;BME280;38044;45.148;39.604;2023-04-26T02:27:23;100861.28;;;6.57;84.76
52032;BME280;38044;45.148;39.604;2023-04-26T02:29:49;100861.50;;;6.55;84.40
52032;BME280;38044;45.148;39.604;2023-04-26T02:32:15;100842.72;;;6.40;84.63
52032;BME280;38044;45.148;39.604;2023-04-26T02:34:41;100869.81;;;6.53;84.39
52032;BME280;38044;45.148;39.604;2023-04-26T02:37:07;100711.25;;;5.53;84.36
52032;BME280;38044;45.148;39.604;2023-04-26T02:39:33;100871.16;;;6.56;84.48
52032;BME280;38044;45.148;39.604;2023-04-26T02:41:59;100879.47;;;6.60;84.55
52032;BME280;38044;45.148;39.604;2023-04-26T02:44:28;100882.72;;;6.67;84.50
52032;BME280;38044;45.148;39.604;2023-04-26T02:46:54;100876.88;;;6.75;84.42
52032;BME280;38044;45.148;39.604;2023-04-26T02:49:20;100871.59;;;6.85;84.21
52032;BME280;38044;45.148;39.604;2023-04-26T02:51:46;100883.44;;;6.99;83.92
52032;BME280;38044;45.148;39.604;2023-04-26T02:54:11;100830.66;;;6.74;83.20
52032;BME280;38044;45.148;39.604;2023-04-26T02:56:37;100879.25;;;7.14;83.41
52032;BME280;38044;45.148;39.604;2023-04-26T02:59:03;100892.66;;;7.19;83.16
52032;BME280;38044;45.148;39.604;2023-04-26T03:01:29;100880.38;;;7.28;82.91
52032;BME280;38044;45.148;39.604;2023-04-26T03:03:55;100748.50;;;6.49;82.72
52032;BME280;38044;45.148;39.604;2023-04-26T03:06:20;100835.44;;;7.20;82.54
52032;BME280;38044;45.148;39.604;2023-04-26T03:08:46;100882.63;;;7.57;82.46
52032;BME280;38044;45.148;39.604;2023-04-26T03:11:12;100844.63;;;7.50;82.11
52032;BME280;38044;45.148;39.604;2023-04-26T03:13:38;100854.31;;;7.66;81.64
52032;BME280;38044;45.148;39.604;2023-04-26T03:16:04;100879.25;;;7.87;81.26
52032;BME280;38044;45.148;39.604;2023-04-26T03:18:30;100712.31;;;6.79;80.92
52032;BME280;38044;45.148;39.604;2023-04-26T03:20:56;100829.13;;;7.57;80.91
52032;BME280;38044;45.148;39.604;2023-04-26T03:23:22;100814.16;;;7.56;80.94
52032;BME280;38044;45.148;39.604;2023-04-26T03:25:50;100855.16;;;7.97;80.75
52032;BME280;38044;45.148;39.604;2023-04-26T03:28:16;100889.72;;;8.29;80.11
52032;BME280;38044;45.148;39.604;2023-04-26T03:30:42;100857.31;;;8.26;79.95
52032;BME280;38044;45.148;39.604;2023-04-26T03:33:08;100710.88;;;7.44;79.33
52032;BME280;38044;45.148;39.604;2023-04-26T03:35:34;100884.38;;;8.75;79.36
52032;BME280;38044;45.148;39.604;2023-04-26T03:37:59;100890.72;;;9.20;78.65
52032;BME280;38044;45.148;39.604;2023-04-26T03:40:25;100891.22;;;9.87;77.21
52032;BME280;38044;45.148;39.604;2023-04-26T03:42:51;100777.72;;;9.77;75.05
52032;BME280;38044;45.148;39.604;2023-04-26T03:45:17;100881.50;;;10.70;74.11
52032;BME280;38044;45.148;39.604;2023-04-26T03:47:44;100877.38;;;10.78;73.81
52032;BME280;38044;45.148;39.604;2023-04-26T03:50:16;100862.84;;;10.79;72.74
52032;BME280;38044;45.148;39.604;2023-04-26T03:52:42;100877.28;;;11.55;72.14
52032;BME280;38044;45.148;39.604;2023-04-26T03:55:08;100763.47;;;11.87;68.74
52032;BME280;38044;45.148;39.604;2023-04-26T03:57:38;100874.03;;;12.94;67.16
52032;BME280;38044;45.148;39.604;2023-04-26T04:00:05;100837.72;;;12.59;66.88
52032;BME280;38044;45.148;39.604;2023-04-26T04:02:34;100884.50;;;12.68;67.58
52032;BME280;38044;45.148;39.604;2023-04-26T04:05:00;100887.53;;;12.94;67.93
52032;BME280;38044;45.148;39.604;2023-04-26T04:07:26;100864.06;;;13.22;66.01
52032;BME280;38044;45.148;39.604;2023-04-26T04:09:52;100749.22;;;12.89;65.87
52032;BME280;38044;45.148;39.604;2023-04-26T04:12:17;100887.19;;;14.91;63.62
52032;BME280;38044;45.148;39.604;2023-04-26T04:14:43;100865.13;;;15.81;60.54
52032;BME280;38044;45.148;39.604;2023-04-26T04:17:09;100877.44;;;16.69;58.39
52032;BME280;38044;45.148;39.604;2023-04-26T04:19:36;100881.81;;;17.59;56.56
52032;BME280;38044;45.148;39.604;2023-04-26T04:22:02;100852.47;;;18.15;53.69
52032;BME280;38044;45.148;39.604;2023-04-26T04:24:27;100854.66;;;18.80;52.24
52032;BME280;38044;45.148;39.604;2023-04-26T04:26:56;100774.09;;;19.03;50.83
52032;BME280;38044;45.148;39.604;2023-04-26T04:29:22;100883.38;;;20.47;48.85
52032;BME280;38044;45.148;39.604;2023-04-26T04:31:48;100834.31;;;20.51;47.72
52032;BME280;38044;45.148;39.604;2023-04-26T04:34:14;100879.19;;;21.29;46.84
52032;BME280;38044;45.148;39.604;2023-04-26T04:36:41;100880.16;;;21.37;45.50
52032;BME280;38044;45.148;39.604;2023-04-26T04:39:07;100876.22;;;21.54;45.18
52032;BME280;38044;45.148;39.604;2023-04-26T04:41:38;100881.47;;;21.78;44.40
52032;BME280;38044;45.148;39.604;2023-04-26T04:44:05;100757.56;;;21.04;44.10
52032;BME280;38044;45.148;39.604;2023-04-26T04:46:30;100866.06;;;22.09;44.61
52032;BME280;38044;45.148;39.604;2023-04-26T04:48:56;100768.84;;;21.57;42.73
52032;BME280;38044;45.148;39.604;2023-04-26T04:51:25;100859.72;;;22.47;42.65
52032;BME280;38044;45.148;39.604;2023-04-26T04:53:52;100839.31;;;22.91;41.87
52032;BME280;38044;45.148;39.604;2023-04-26T04:56:18;100830.72;;;23.46;41.90
52032;BME280;38044;45.148;39.604;2023-04-26T04:58:44;100832.88;;;23.90;41.09
52032;BME280;38044;45.148;39.604;2023-04-26T05:01:10;100859.25;;;24.35;40.28
52032;BME280;38044;45.148;39.604;2023-04-26T05:03:36;100824.63;;;24.71;39.43
52032;BME280;38044;45.148;39.604;2023-04-26T05:06:02;100854.63;;;24.87;39.06
52032;BME280;38044;45.148;39.604;2023-04-26T05:08:28;100863.13;;;24.75;39.20
52032;BME280;38044;45.148;39.604;2023-04-26T05:10:54;100856.41;;;24.28;38.80
52032;BME280;38044;45.148;39.604;2023-04-26T05:13:20;100854.75;;;23.86;40.09
52032;BME280;38044;45.148;39.604;2023-04-26T05:15:46;100842.34;;;23.96;40.44
52032;BME280;38044;45.148;39.604;2023-04-26T05:18:12;100735.00;;;23.37;40.52
52032;BME280;38044;45.148;39.604;2023-04-26T05:20:38;100852.91;;;24.31;40.63
52032;BME280;38044;45.148;39.604;2023-04-26T05:23:04;100849.13;;;24.09;40.71
52032;BME280;38044;45.148;39.604;2023-04-26T05:25:30;100847.16;;;24.06;39.97
52032;BME280;38044;45.148;39.604;2023-04-26T05:27:55;100850.88;;;23.87;40.13
52032;BME280;38044;45.148;39.604;2023-04-26T05:30:21;100821.31;;;24.11;39.35
52032;BME280;38044;45.148;39.604;2023-04-26T05:32:47;100841.53;;;24.70;39.64
52032;BME280;38044;45.148;39.604;2023-04-26T05:35:14;100817.56;;;25.29;38.91
52032;BME280;38044;45.148;39.604;2023-04-26T05:37:40;100837.97;;;26.05;37.51
52032;BME280;38044;45.148;39.604;2023-04-26T05:40:06;100830.50;;;26.16;36.98
52032;BME280;38044;45.148;39.604;2023-04-26T05:42:33;100837.53;;;25.92;36.30
52032;BME280;38044;45.148;39.604;2023-04-26T05:44:59;100751.59;;;25.36;36.53
52032;BME280;38044;45.148;39.604;2023-04-26T05:47:24;100752.72;;;25.28;36.97
52032;BME280;38044;45.148;39.604;2023-04-26T05:49:50;100831.09;;;25.63;36.23
52032;BME280;38044;45.148;39.604;2023-04-26T05:52:16;100838.13;;;25.50;36.47
52032;BME280;38044;45.148;39.604;2023-04-26T05:54:42;100734.19;;;25.14;37.14
52032;BME280;38044;45.148;39.604;2023-04-26T05:57:08;100838.38;;;26.14;36.64
52032;BME280;38044;45.148;39.604;2023-04-26T05:59:36;100839.94;;;26.08;36.51
52032;BME280;38044;45.148;39.604;2023-04-26T06:02:02;100838.38;;;26.14;36.64
52032;BME280;38044;45.148;39.604;2023-04-26T06:04:29;100822.66;;;26.22;36.30
52032;BME280;38044;45.148;39.604;2023-04-26T06:06:55;100711.22;;;25.76;36.60
52032;BME280;38044;45.148;39.604;2023-04-26T06:09:20;100829.41;;;26.82;35.31
52032;BME280;38044;45.148;39.604;2023-04-26T06:11:46;100822.69;;;26.72;35.23
52032;BME280;38044;45.148;39.604;2023-04-26T06:14:12;100796.50;;;25.69;36.29
52032;BME280;38044;45.148;39.604;2023-04-26T06:16:38;100812.97;;;24.85;37.47
52032;BME280;38044;45.148;39.604;2023-04-26T06:19:04;100704.69;;;23.97;38.69
52032;BME280;38044;45.148;39.604;2023-04-26T06:21:30;100712.28;;;24.63;37.95
52032;BME280;38044;45.148;39.604;2023-04-26T06:23:56;100783.84;;;25.47;37.75
52032;BME280;38044;45.148;39.604;2023-04-26T06:26:22;100824.94;;;25.88;37.71
52032;BME280;38044;45.148;39.604;2023-04-26T06:28:47;100726.88;;;25.58;37.07
52032;BME280;38044;45.148;39.604;2023-04-26T06:31:13;100807.28;;;26.10;37.59
52032;BME280;38044;45.148;39.604;2023-04-26T06:33:39;100823.50;;;26.51;36.73
52032;BME280;38044;45.148;39.604;2023-04-26T06:36:05;100687.16;;;25.52;37.03
52032;BME280;38044;45.148;39.604;2023-04-26T06:38:31;100674.06;;;25.13;37.67
52032;BME280;38044;45.148;39.604;2023-04-26T06:40:57;100815.44;;;25.81;38.28
52032;BME280;38044;45.148;39.604;2023-04-26T06:43:23;100690.16;;;24.41;39.47
52032;BME280;38044;45.148;39.604;2023-04-26T06:45:49;100809.91;;;25.78;40.13
52032;BME280;38044;45.148;39.604;2023-04-26T06:48:14;100794.31;;;26.25;38.83
52032;BME280;38044;45.148;39.604;2023-04-26T06:50:40;100777.78;;;26.32;38.80
52032;BME280;38044;45.148;39.604;2023-04-26T06:53:07;100775.41;;;26.20;38.51
52032;BME280;38044;45.148;39.604;2023-04-26T06:55:32;100809.28;;;26.27;38.74
52032;BME280;38044;45.148;39.604;2023-04-26T06:57:58;100782.06;;;26.01;39.02
52032;BME280;38044;45.148;39.604;2023-04-26T07:00:24;100804.41;;;25.74;39.68
52032;BME280;38044;45.148;39.604;2023-04-26T07:02:50;100687.09;;;24.05;41.83
52032;BME280;38044;45.148;39.604;2023-04-26T07:05:16;100804.22;;;24.28;42.72
52032;BME280;38044;45.148;39.604;2023-04-26T07:07:41;100816.72;;;24.22;42.53
52032;BME280;38044;45.148;39.604;2023-04-26T07:10:08;100757.03;;;24.15;42.24
52032;BME280;38044;45.148;39.604;2023-04-26T07:12:34;100808.94;;;25.27;41.87
52032;BME280;38044;45.148;39.604;2023-04-26T07:14:59;100773.78;;;25.83;40.69
52032;BME280;38044;45.148;39.604;2023-04-26T07:17:26;100809.28;;;26.49;39.70
52032;BME280;38044;45.148;39.604;2023-04-26T07:19:52;100812.44;;;26.87;38.96
52032;BME280;38044;45.148;39.604;2023-04-26T07:22:19;100800.91;;;27.35;38.21
52032;BME280;38044;45.148;39.604;2023-04-26T07:24:44;100795.72;;;27.51;37.90
52032;BME280;38044;45.148;39.604;2023-04-26T07:27:10;100748.50;;;27.31;37.42
52032;BME280;38044;45.148;39.604;2023-04-26T07:29:37;100726.25;;;27.63;37.51
52032;BME280;38044;45.148;39.604;2023-04-26T07:32:03;100786.75;;;28.06;37.08
52032;BME280;38044;45.148;39.604;2023-04-26T07:34:29;100792.06;;;27.76;36.67
52032;BME280;38044;45.148;39.604;2023-04-26T07:36:55;100769.88;;;26.95;38.13
52032;BME280;38044;45.148;39.604;2023-04-26T07:39:21;100749.41;;;26.78;37.58
52032;BME280;38044;45.148;39.604;2023-04-26T07:41:47;100777.78;;;26.36;38.04
52032;BME280;38044;45.148;39.604;2023-04-26T07:44:13;100656.53;;;25.78;37.72
52032;BME280;38044;45.148;39.604;2023-04-26T07:46:39;100784.88;;;26.72;37.73
52032;BME280;38044;45.148;39.604;2023-04-26T07:49:05;100778.97;;;26.70;37.37
52032;BME280;38044;45.148;39.604;2023-04-26T07:51:31;100789.97;;;26.92;37.78
52032;BME280;38044;45.148;39.604;2023-04-26T07:53:57;100776.06;;;27.35;37.24
52032;BME280;38044;45.148;39.604;2023-04-26T07:56:23;100762.59;;;27.51;36.84
52032;BME280;38044;45.148;39.604;2023-04-26T07:58:49;100649.03;;;26.65;36.84
52032;BME280;38044;45.148;39.604;2023-04-26T08:01:16;100782.50;;;26.74;38.19
52032;BME280;38044;45.148;39.604;2023-04-26T08:03:41;100773.44;;;26.31;38.35
52032;BME280;38044;45.148;39.604;2023-04-26T08:06:07;100762.84;;;26.33;38.33
52032;BME280;38044;45.148;39.604;2023-04-26T08:08:34;100767.59;;;26.61;39.11
52032;BME280;38044;45.148;39.604;2023-04-26T08:11:07;100662.06;;;26.36;38.26
52032;BME280;38044;45.148;39.604;2023-04-26T08:13:34;100742.66;;;27.18;36.96
52032;BME280;38044;45.148;39.604;2023-04-26T08:16:00;100760.31;;;27.39;36.40
52032;BME280;38044;45.148;39.604;2023-04-26T08:18:25;100747.72;;;27.31;37.37
52032;BME280;38044;45.148;39.604;2023-04-26T08:20:51;100751.44;;;27.73;36.72
52032;BME280;38044;45.148;39.604;2023-04-26T08:23:20;100629.19;;;26.95;37.07
52032;BME280;38044;45.148;39.604;2023-04-26T08:25:47;100756.38;;;28.06;36.97
52032;BME280;38044;45.148;39.604;2023-04-26T08:28:14;100757.03;;;28.25;36.47
52032;BME280;38044;45.148;39.604;2023-04-26T08:30:41;100634.16;;;27.36;35.26
52032;BME280;38044;45.148;39.604;2023-04-26T08:33:08;100697.25;;;27.97;35.66
52032;BME280;38044;45.148;39.604;2023-04-26T08:35:34;100646.75;;;27.96;35.65
52032;BME280;38044;45.148;39.604;2023-04-26T08:38:00;100649.75;;;28.13;34.77
52032;BME280;38044;45.148;39.604;2023-04-26T08:40:26;100753.53;;;28.66;34.91
52032;BME280;38044;45.148;39.604;2023-04-26T08:42:52;100753.59;;;28.59;35.20
52032;BME280;38044;45.148;39.604;2023-04-26T08:45:23;100755.84;;;28.71;34.73
52032;BME280;38044;45.148;39.604;2023-04-26T08:47:52;100751.97;;;28.16;36.59
52032;BME280;38044;45.148;39.604;2023-04-26T08:50:20;100718.97;;;27.17;37.51
52032;BME280;38044;45.148;39.604;2023-04-26T08:52:48;100630.56;;;26.15;38.21
52032;BME280;38044;45.148;39.604;2023-04-26T08:55:16;100707.69;;;26.65;38.59
52032;BME280;38044;45.148;39.604;2023-04-26T08:57:44;100716.31;;;26.85;39.01
52032;BME280;38044;45.148;39.604;2023-04-26T09:00:11;100730.72;;;27.39;37.89
52032;BME280;38044;45.148;39.604;2023-04-26T09:02:45;100727.03;;;27.64;36.58
52032;BME280;38044;45.148;39.604;2023-04-26T09:05:11;100723.19;;;27.47;36.51
52032;BME280;38044;45.148;39.604;2023-04-26T09:10:03;100603.69;;;26.77;37.22
52032;BME280;38044;45.148;39.604;2023-04-26T09:12:30;100599.72;;;26.78;36.14
52032;BME280;38044;45.148;39.604;2023-04-26T09:14:56;100713.75;;;27.41;36.37
52032;BME280;38044;45.148;39.604;2023-04-26T09:17:38;100658.38;;;26.96;36.10
52032;BME280;38044;45.148;39.604;2023-04-26T09:20:26;100686.31;;;26.98;36.57
52032;BME280;38044;45.148;39.604;2023-04-26T09:23:14;100702.16;;;26.76;36.29
52032;BME280;38044;45.148;39.604;2023-04-26T09:25:41;100669.91;;;26.41;36.77
52032;BME280;38044;45.148;39.604;2023-04-26T09:28:23;100694.28;;;26.74;36.56
52032;BME280;38044;45.148;39.604;2023-04-26T09:30:49;100674.25;;;26.42;37.07
52032;BME280;38044;45.148;39.604;2023-04-26T09:33:15;100684.13;;;26.50;37.02
52032;BME280;38044;45.148;39.604;2023-04-26T09:35:42;100573.09;;;26.39;35.90
52032;BME280;38044;45.148;39.604;2023-04-26T09:38:17;100692.50;;;27.34;34.92
52032;BME280;38044;45.148;39.604;2023-04-26T09:40:48;100693.88;;;27.64;35.16
52032;BME280;38044;45.148;39.604;2023-04-26T09:43:19;100686.78;;;27.67;35.27
52032;BME280;38044;45.148;39.604;2023-04-26T09:45:53;100589.31;;;27.17;34.11
52032;BME280;38044;45.148;39.604;2023-04-26T09:48:30;100579.47;;;27.13;33.40
52032;BME280;38044;45.148;39.604;2023-04-26T09:51:08;100698.53;;;27.85;33.26
52032;BME280;38044;45.148;39.604;2023-04-26T09:53:35;100564.09;;;27.15;33.06
52032;BME280;38044;45.148;39.604;2023-04-26T09:58:54;100676.34;;;27.96;31.99
52032;BME280;38044;45.148;39.604;2023-04-26T10:01:26;100668.16;;;27.11;31.63
52032;BME280;38044;45.148;39.604;2023-04-26T10:03:55;100573.94;;;26.07;32.75
52032;BME280;38044;45.148;39.604;2023-04-26T10:06:22;100663.25;;;26.27;30.59
52032;BME280;38044;45.148;39.604;2023-04-26T10:08:48;100656.97;;;25.84;31.43
52032;BME280;38044;45.148;39.604;2023-04-26T10:11:13;100664.38;;;25.55;30.03
52032;BME280;38044;45.148;39.604;2023-04-26T10:13:40;100665.53;;;25.39;30.63
52032;BME280;38044;45.148;39.604;2023-04-26T10:16:08;100573.00;;;24.88;31.66
52032;BME280;38044;45.148;39.604;2023-04-26T10:18:37;100685.56;;;25.40;32.04
52032;BME280;38044;45.148;39.604;2023-04-26T10:21:10;100660.38;;;25.34;31.19
52032;BME280;38044;45.148;39.604;2023-04-26T10:23:37;100649.31;;;25.13;31.30
52032;BME280;38044;45.148;39.604;2023-04-26T10:26:03;100535.06;;;24.28;30.95
52032;BME280;38044;45.148;39.604;2023-04-26T10:31:13;100654.06;;;25.23;32.66
52032;BME280;38044;45.148;39.604;2023-04-26T10:33:39;100654.06;;;25.20;31.50
52032;BME280;38044;45.148;39.604;2023-04-26T10:36:12;100635.97;;;25.15;31.63
52032;BME280;38044;45.148;39.604;2023-04-26T10:38:38;100649.78;;;25.44;31.53
52032;BME280;38044;45.148;39.604;2023-04-26T10:41:26;100643.09;;;25.30;32.21
52032;BME280;38044;45.148;39.604;2023-04-26T10:43:54;100591.84;;;24.83;31.40
52032;BME280;38044;45.148;39.604;2023-04-26T10:46:39;100639.88;;;25.07;31.34
52032;BME280;38044;45.148;39.604;2023-04-26T10:49:16;100601.28;;;24.85;31.24
52032;BME280;38044;45.148;39.604;2023-04-26T10:52:10;100642.19;;;25.01;30.18
52032;BME280;38044;45.148;39.604;2023-04-26T10:54:53;100625.25;;;24.85;31.81
52032;BME280;38044;45.148;39.604;2023-04-26T10:57:20;100508.38;;;24.32;32.95
52032;BME280;38044;45.148;39.604;2023-04-26T11:02:44;100609.09;;;24.80;32.96
52032;BME280;38044;45.148;39.604;2023-04-26T11:05:34;100624.03;;;24.82;32.93
52032;BME280;38044;45.148;39.604;2023-04-26T11:08:23;100631.50;;;24.78;33.77
52032;BME280;38044;45.148;39.604;2023-04-26T11:13:37;100624.75;;;24.68;32.71
52032;BME280;38044;45.148;39.604;2023-04-26T11:16:11;100626.31;;;24.66;32.72
52032;BME280;38044;45.148;39.604;2023-04-26T11:18:39;100606.22;;;24.47;33.48
52032;BME280;38044;45.148;39.604;2023-04-26T11:21:07;100521.59;;;24.05;32.98
52032;BME280;38044;45.148;39.604;2023-04-26T11:23:33;100585.38;;;24.46;33.56
52032;BME280;38044;45.148;39.604;2023-04-26T11:26:05;100590.84;;;24.39;32.69
52032;BME280;38044;45.148;39.604;2023-04-26T11:28:34;100514.38;;;23.79;33.30
52032;BME280;38044;45.148;39.604;2023-04-26T11:31:02;100571.78;;;24.05;33.88
52032;BME280;38044;45.148;39.604;2023-04-26T11:33:28;100480.75;;;23.41;34.03
52032;BME280;38044;45.148;39.604;2023-04-26T11:35:57;100478.81;;;23.45;34.00
52032;BME280;38044;45.148;39.604;2023-04-26T11:38:24;100612.75;;;24.28;34.59
52032;BME280;38044;45.148;39.604;2023-04-26T11:41:02;100574.19;;;24.11;33.86
52032;BME280;38044;45.148;39.604;2023-04-26T11:43:38;100574.94;;;24.08;32.60
52032;BME280;38044;45.148;39.604;2023-04-26T11:46:05;100597.88;;;24.37;32.36
52032;BME280;38044;45.148;39.604;2023-04-26T11:48:33;100594.25;;;24.18;32.98
52032;BME280;38044;45.148;39.604;2023-04-26T11:51:02;100522.88;;;23.67;33.58
52032;BME280;38044;45.148;39.604;2023-04-26T11:53:39;100573.00;;;24.08;33.52
52032;BME280;38044;45.148;39.604;2023-04-26T11:56:18;100588.31;;;24.13;32.43
52032;BME280;38044;45.148;39.604;2023-04-26T11:58:50;100593.06;;;24.16;34.07
52032;BME280;38044;45.148;39.604;2023-04-26T12:01:24;100584.81;;;24.16;35.35
52032;BME280;38044;45.148;39.604;2023-04-26T12:03:54;100468.25;;;23.47;35.98
52032;BME280;38044;45.148;39.604;2023-04-26T12:06:29;100495.50;;;23.74;35.09
52032;BME280;38044;45.148;39.604;2023-04-26T12:08:55;100578.13;;;24.13;34.61
52032;BME280;38044;45.148;39.604;2023-04-26T12:11:21;100579.50;;;23.89;34.80
52032;BME280;38044;45.148;39.604;2023-04-26T12:13:47;100465.28;;;23.19;35.44
52032;BME280;38044;45.148;39.604;2023-04-26T12:16:13;100574.84;;;23.93;35.69
52032;BME280;38044;45.148;39.604;2023-04-26T12:18:40;100557.09;;;23.80;34.90
52032;BME280;38044;45.148;39.604;2023-04-26T12:21:06;100578.72;;;23.85;35.83
52032;BME280;38044;45.148;39.604;2023-04-26T12:23:39;100569.19;;;23.72;35.98
52032;BME280;38044;45.148;39.604;2023-04-26T12:26:05;100495.06;;;23.20;36.02
52032;BME280;38044;45.148;39.604;2023-04-26T12:28:32;100483.25;;;23.12;35.74
52032;BME280;38044;45.148;39.604;2023-04-26T12:30:57;100577.38;;;23.68;35.15
52032;BME280;38044;45.148;39.604;2023-04-26T12:33:25;100579.34;;;23.68;36.17
52032;BME280;38044;45.148;39.604;2023-04-26T12:35:51;100537.63;;;23.51;36.10
52032;BME280;38044;45.148;39.604;2023-04-26T12:38:17;100561.69;;;23.69;36.00
52032;BME280;38044;45.148;39.604;2023-04-26T12:40:44;100532.03;;;23.37;34.92
52032;BME280;38044;45.148;39.604;2023-04-26T12:43:10;100567.44;;;23.53;35.71
52032;BME280;38044;45.148;39.604;2023-04-26T12:45:36;100563.56;;;23.57;35.75
52032;BME280;38044;45.148;39.604;2023-04-26T12:48:02;100564.00;;;23.63;37.07
52032;BME280;38044;45.148;39.604;2023-04-26T12:50:28;100435.97;;;22.85;35.63
52032;BME280;38044;45.148;39.604;2023-04-26T12:52:54;100561.31;;;23.67;35.92
52032;BME280;38044;45.148;39.604;2023-04-26T12:55:20;100562.13;;;23.71;35.73
52032;BME280;38044;45.148;39.604;2023-04-26T12:57:46;100536.50;;;23.52;34.78